sensor_id;sensor_type;location;lat;lon;timestamp;P1;durP1;ratioP1;P2;durP2;ratioP2
29700;SDS011;57917;51.380;-0.176;2023-05-10T00:04:10;7.07;;;1.63;;
29700;SDS011;57917;51.380;-0.176;2023-05-10T00:10:00;4.95;;;1.67;;
29700;SDS011;57917;51.380;-0.176;2023-05-10T00:15:50;2.85;;;1.58;;
29700;SDS011;57917;51.380;-0.176;2023-05-10T00:21:37;3.97;;;1.67;;
29700;SDS011;57917;51.380;-0.176;2023-05-10T00:27:25;3.65;;;1.55;;
29700;SDS011;57917;51.380;-0.176;2023-05-10T00:33:12;2.00;;;1.10;;
29700;SDS011;57917;51.380;-0.176;2023-05-10T00:38:59;4.28;;;1.80;;
29700;SDS011;57917;51.380;-0.176;2023-05-10T00:44:49;3.40;;;2.17;;
29700;SDS011;57917;51.380;-0.176;2023-05-10T00:50:38;2.70;;;1.85;;
29700;SDS011;57917;51.380;-0.176;2023-05-10T00:56:26;3.88;;;1.83;;
29700;SDS011;57917;51.380;-0.176;2023-05-10T01:02:18;4.13;;;1.50;;
29700;SDS011;57917;51.380;-0.176;2023-05-10T01:08:05;3.03;;;1.30;;
29700;SDS011;57917;51.380;-0.176;2023-05-10T01:13:55;3.20;;;1.13;;
29700;SDS011;57917;51.380;-0.176;2023-05-10T01:19:45;4.28;;;1.63;;
29700;SDS011;57917;51.380;-0.176;2023-05-10T01:37:45;3.22;;;1.55;;
29700;SDS011;57917;51.380;-0.176;2023-05-10T01:44:10;5.05;;;2.08;;
29700;SDS011;57917;51.380;-0.176;2023-05-10T01:50:09;4.47;;;2.10;;
29700;SDS011;57917;51.380;-0.176;2023-05-10T01:56:02;2.80;;;1.40;;
29700;SDS011;57917;51.380;-0.176;2023-05-10T02:01:51;4.97;;;1.40;;
29700;SDS011;57917;51.380;-0.176;2023-05-10T02:07:40;3.03;;;1.42;;
29700;SDS011;57917;51.380;-0.176;2023-05-10T02:13:28;3.38;;;1.70;;
29700;SDS011;57917;51.380;-0.176;2023-05-10T02:19:17;7.03;;;1.65;;
29700;SDS011;57917;51.380;-0.176;2023-05-10T02:25:06;8.00;;;2.03;;
29700;SDS011;57917;51.380;-0.176;2023-05-10T02:30:55;5.55;;;1.80;;
29700;SDS011;57917;51.380;-0.176;2023-05-10T02:36:46;7.75;;;2.38;;
29700;SDS011;57917;51.380;-0.176;2023-05-10T02:42:35;4.05;;;1.63;;
29700;SDS011;57917;51.380;-0.176;2023-05-10T02:48:23;6.43;;;1.90;;
29700;SDS011;57917;51.380;-0.176;2023-05-10T02:54:20;11.43;;;1.77;;
29700;SDS011;57917;51.380;-0.176;2023-05-10T03:00:14;7.60;;;1.80;;
29700;SDS011;57917;51.380;-0.176;2023-05-10T03:06:01;6.68;;;2.10;;
29700;SDS011;57917;51.380;-0.176;2023-05-10T03:11:56;8.80;;;2.20;;
29700;SDS011;57917;51.380;-0.176;2023-05-10T03:18:01;5.03;;;2.00;;
29700;SDS011;57917;51.380;-0.176;2023-05-10T03:23:58;4.20;;;1.92;;
29700;SDS011;57917;51.380;-0.176;2023-05-10T03:29:53;6.10;;;2.25;;
29700;SDS011;57917;51.380;-0.176;2023-05-10T03:35:41;6.35;;;2.15;;
29700;SDS011;57917;51.380;-0.176;2023-05-10T03:41:30;10.55;;;2.88;;
29700;SDS011;57917;51.380;-0.176;2023-05-10T03:47:17;11.43;;;3.00;;
29700;SDS011;57917;51.380;-0.176;2023-05-10T03:53:10;5.43;;;3.08;;
29700;SDS011;57917;51.380;-0.176;2023-05-10T03:58:58;9.57;;;2.90;;
29700;SDS011;57917;51.380;-0.176;2023-05-10T04:04:45;7.18;;;3.30;;
29700;SDS011;57917;51.380;-0.176;2023-05-10T04:10:33;5.22;;;3.42;;
29700;SDS011;57917;51.380;-0.176;2023-05-10T04:16:20;8.43;;;3.17;;
29700;SDS011;57917;51.380;-0.176;2023-05-10T04:22:07;8.45;;;3.38;;
29700;SDS011;57917;51.380;-0.176;2023-05-10T04:27:56;9.00;;;3.67;;
29700;SDS011;57917;51.380;-0.176;2023-05-10T04:33:43;10.20;;;3.28;;
29700;SDS011;57917;51.380;-0.176;2023-05-10T04:39:30;10.85;;;3.42;;
29700;SDS011;57917;51.380;-0.176;2023-05-10T04:45:19;8.15;;;3.53;;
29700;SDS011;57917;51.380;-0.176;2023-05-10T04:51:06;10.70;;;4.10;;
29700;SDS011;57917;51.380;-0.176;2023-05-10T04:56:56;9.30;;;3.97;;
29700;SDS011;57917;51.380;-0.176;2023-05-10T05:02:45;9.80;;;3.20;;
29700;SDS011;57917;51.380;-0.176;2023-05-10T05:08:32;7.80;;;3.45;;
29700;SDS011;57917;51.380;-0.176;2023-05-10T05:14:23;10.02;;;3.88;;
29700;SDS011;57917;51.380;-0.176;2023-05-10T05:20:13;8.32;;;3.55;;
29700;SDS011;57917;51.380;-0.176;2023-05-10T05:26:05;12.95;;;4.40;;
29700;SDS011;57917;51.380;-0.176;2023-05-10T05:31:58;19.85;;;4.22;;
29700;SDS011;57917;51.380;-0.176;2023-05-10T05:37:45;10.30;;;4.22;;
29700;SDS011;57917;51.380;-0.176;2023-05-10T05:43:32;12.32;;;3.80;;
29700;SDS011;57917;51.380;-0.176;2023-05-10T05:49:23;11.35;;;4.25;;
29700;SDS011;57917;51.380;-0.176;2023-05-10T05:55:10;10.70;;;3.80;;
29700;SDS011;57917;51.380;-0.176;2023-05-10T06:01:00;7.47;;;3.35;;
29700;SDS011;57917;51.380;-0.176;2023-05-10T06:06:47;13.18;;;3.70;;
29700;SDS011;57917;51.380;-0.176;2023-05-10T06:12:34;8.63;;;3.42;;
29700;SDS011;57917;51.380;-0.176;2023-05-10T06:18:21;8.77;;;2.88;;
29700;SDS011;57917;51.380;-0.176;2023-05-10T06:24:08;7.85;;;2.95;;
29700;SDS011;57917;51.380;-0.176;2023-05-10T06:29:58;7.05;;;2.30;;
29700;SDS011;57917;51.380;-0.176;2023-05-10T06:35:58;6.53;;;2.22;;
29700;SDS011;57917;51.380;-0.176;2023-05-10T06:41:47;9.23;;;3.40;;
29700;SDS011;57917;51.380;-0.176;2023-05-10T06:47:38;5.57;;;2.38;;
29700;SDS011;57917;51.380;-0.176;2023-05-10T06:53:30;6.95;;;2.33;;
29700;SDS011;57917;51.380;-0.176;2023-05-10T06:59:25;7.57;;;2.65;;
29700;SDS011;57917;51.380;-0.176;2023-05-10T07:05:15;10.43;;;2.40;;
29700;SDS011;57917;51.380;-0.176;2023-05-10T07:11:09;8.18;;;2.70;;
29700;SDS011;57917;51.380;-0.176;2023-05-10T07:17:02;13.98;;;2.20;;
29700;SDS011;57917;51.380;-0.176;2023-05-10T07:22:49;8.70;;;2.10;;
29700;SDS011;57917;51.380;-0.176;2023-05-10T07:28:36;5.70;;;1.70;;
29700;SDS011;57917;51.380;-0.176;2023-05-10T07:34:25;11.45;;;2.25;;
29700;SDS011;57917;51.380;-0.176;2023-05-10T07:40:12;6.68;;;2.25;;
29700;SDS011;57917;51.380;-0.176;2023-05-10T07:45:59;10.77;;;2.17;;
29700;SDS011;57917;51.380;-0.176;2023-05-10T07:51:46;11.85;;;2.63;;
29700;SDS011;57917;51.380;-0.176;2023-05-10T07:57:34;9.85;;;3.17;;
29700;SDS011;57917;51.380;-0.176;2023-05-10T08:03:25;9.68;;;2.35;;
29700;SDS011;57917;51.380;-0.176;2023-05-10T08:09:18;13.73;;;1.92;;
29700;SDS011;57917;51.380;-0.176;2023-05-10T08:15:10;6.80;;;2.17;;
29700;SDS011;57917;51.380;-0.176;2023-05-10T08:20:57;12.52;;;2.50;;
29700;SDS011;57917;51.380;-0.176;2023-05-10T08:26:45;8.35;;;1.95;;
29700;SDS011;57917;51.380;-0.176;2023-05-10T08:32:37;6.22;;;2.00;;
29700;SDS011;57917;51.380;-0.176;2023-05-10T08:38:24;9.50;;;2.72;;
29700;SDS011;57917;51.380;-0.176;2023-05-10T08:44:12;9.48;;;2.75;;
29700;SDS011;57917;51.380;-0.176;2023-05-10T08:50:10;6.75;;;2.28;;
29700;SDS011;57917;51.380;-0.176;2023-05-10T08:56:04;6.95;;;3.08;;
29700;SDS011;57917;51.380;-0.176;2023-05-10T09:01:52;7.45;;;2.50;;
29700;SDS011;57917;51.380;-0.176;2023-05-10T09:07:45;6.90;;;2.25;;
29700;SDS011;57917;51.380;-0.176;2023-05-10T09:13:35;10.25;;;2.47;;
29700;SDS011;57917;51.380;-0.176;2023-05-10T09:19:22;7.70;;;2.67;;
29700;SDS011;57917;51.380;-0.176;2023-05-10T09:25:10;5.00;;;2.63;;
29700;SDS011;57917;51.380;-0.176;2023-05-10T09:31:02;8.05;;;3.33;;
29700;SDS011;57917;51.380;-0.176;2023-05-10T09:36:55;9.10;;;2.70;;
29700;SDS011;57917;51.380;-0.176;2023-05-10T09:48:44;6.40;;;3.38;;
29700;SDS011;57917;51.380;-0.176;2023-05-10T10:01:13;7.57;;;2.55;;
29700;SDS011;57917;51.380;-0.176;2023-05-10T10:07:01;11.98;;;2.88;;
29700;SDS011;57917;51.380;-0.176;2023-05-10T10:12:50;7.15;;;2.60;;
29700;SDS011;57917;51.380;-0.176;2023-05-10T10:18:37;10.02;;;3.00;;
29700;SDS011;57917;51.380;-0.176;2023-05-10T10:24:25;6.70;;;2.55;;
29700;SDS011;57917;51.380;-0.176;2023-05-10T10:36:19;4.93;;;2.20;;
29700;SDS011;57917;51.380;-0.176;2023-05-10T10:42:09;14.25;;;2.40;;
29700;SDS011;57917;51.380;-0.176;2023-05-10T10:54:13;9.55;;;2.45;;
29700;SDS011;57917;51.380;-0.176;2023-05-10T11:00:18;7.95;;;1.85;;
29700;SDS011;57917;51.380;-0.176;2023-05-10T11:06:18;5.60;;;1.33;;
29700;SDS011;57917;51.380;-0.176;2023-05-10T11:12:15;6.05;;;1.58;;
29700;SDS011;57917;51.380;-0.176;2023-05-10T11:18:16;3.95;;;1.48;;
29700;SDS011;57917;51.380;-0.176;2023-05-10T11:24:19;9.13;;;1.60;;
29700;SDS011;57917;51.380;-0.176;2023-05-10T11:30:10;3.17;;;1.25;;
29700;SDS011;57917;51.380;-0.176;2023-05-10T11:35:58;6.90;;;1.30;;
29700;SDS011;57917;51.380;-0.176;2023-05-10T11:41:47;5.05;;;1.42;;
29700;SDS011;57917;51.380;-0.176;2023-05-10T11:47:36;3.42;;;1.00;;
29700;SDS011;57917;51.380;-0.176;2023-05-10T11:53:38;4.22;;;1.10;;
29700;SDS011;57917;51.380;-0.176;2023-05-10T11:59:28;6.72;;;1.23;;
29700;SDS011;57917;51.380;-0.176;2023-05-10T12:05:18;4.47;;;1.02;;
29700;SDS011;57917;51.380;-0.176;2023-05-10T12:11:09;2.40;;;0.95;;
29700;SDS011;57917;51.380;-0.176;2023-05-10T12:17:14;3.00;;;1.10;;
29700;SDS011;57917;51.380;-0.176;2023-05-10T12:23:08;3.95;;;1.42;;
29700;SDS011;57917;51.380;-0.176;2023-05-10T12:29:17;5.20;;;1.00;;
29700;SDS011;57917;51.380;-0.176;2023-05-10T12:35:10;2.78;;;0.98;;
29700;SDS011;57917;51.380;-0.176;2023-05-10T12:41:00;4.38;;;1.63;;
29700;SDS011;57917;51.380;-0.176;2023-05-10T12:46:50;11.00;;;1.80;;
29700;SDS011;57917;51.380;-0.176;2023-05-10T12:52:37;14.75;;;2.13;;
29700;SDS011;57917;51.380;-0.176;2023-05-10T12:58:34;5.35;;;0.95;;
29700;SDS011;57917;51.380;-0.176;2023-05-10T13:04:30;3.83;;;0.80;;
29700;SDS011;57917;51.380;-0.176;2023-05-10T13:10:20;3.22;;;1.20;;
29700;SDS011;57917;51.380;-0.176;2023-05-10T13:16:11;7.15;;;1.05;;
29700;SDS011;57917;51.380;-0.176;2023-05-10T13:22:10;4.32;;;1.35;;
29700;SDS011;57917;51.380;-0.176;2023-05-10T13:27:57;8.27;;;1.30;;
29700;SDS011;57917;51.380;-0.176;2023-05-10T13:33:44;4.97;;;1.58;;
29700;SDS011;57917;51.380;-0.176;2023-05-10T13:39:34;4.03;;;1.55;;
29700;SDS011;57917;51.380;-0.176;2023-05-10T13:45:24;1.67;;;1.00;;
29700;SDS011;57917;51.380;-0.176;2023-05-10T13:51:12;6.85;;;1.85;;
29700;SDS011;57917;51.380;-0.176;2023-05-10T13:56:59;1.80;;;1.17;;
29700;SDS011;57917;51.380;-0.176;2023-05-10T14:02:49;4.22;;;1.00;;
29700;SDS011;57917;51.380;-0.176;2023-05-10T14:08:40;5.28;;;1.70;;
29700;SDS011;57917;51.380;-0.176;2023-05-10T14:14:27;6.90;;;1.38;;
29700;SDS011;57917;51.380;-0.176;2023-05-10T14:20:18;3.78;;;1.30;;
29700;SDS011;57917;51.380;-0.176;2023-05-10T14:26:12;3.33;;;1.30;;
29700;SDS011;57917;51.380;-0.176;2023-05-10T14:32:01;1.45;;;0.30;;
29700;SDS011;57917;51.380;-0.176;2023-05-10T14:37:52;2.00;;;0.70;;
29700;SDS011;57917;51.380;-0.176;2023-05-10T14:43:46;1.23;;;0.38;;
29700;SDS011;57917;51.380;-0.176;2023-05-10T14:49:43;2.10;;;0.63;;
29700;SDS011;57917;51.380;-0.176;2023-05-10T14:55:30;1.90;;;0.80;;
29700;SDS011;57917;51.380;-0.176;2023-05-10T15:01:23;2.72;;;0.85;;
29700;SDS011;57917;51.380;-0.176;2023-05-10T15:07:45;3.45;;;0.90;;
29700;SDS011;57917;51.380;-0.176;2023-05-10T15:13:35;3.13;;;1.23;;
29700;SDS011;57917;51.380;-0.176;2023-05-10T15:19:28;3.45;;;0.82;;
29700;SDS011;57917;51.380;-0.176;2023-05-10T15:25:27;6.70;;;1.17;;
29700;SDS011;57917;51.380;-0.176;2023-05-10T15:31:21;2.63;;;0.82;;
29700;SDS011;57917;51.380;-0.176;2023-05-10T15:37:08;1.38;;;0.90;;
29700;SDS011;57917;51.380;-0.176;2023-05-10T15:43:04;5.82;;;1.00;;
29700;SDS011;57917;51.380;-0.176;2023-05-10T15:49:07;6.70;;;1.20;;
29700;SDS011;57917;51.380;-0.176;2023-05-10T15:55:14;5.32;;;1.13;;
29700;SDS011;57917;51.380;-0.176;2023-05-10T16:01:05;5.75;;;2.20;;
29700;SDS011;57917;51.380;-0.176;2023-05-10T16:07:03;7.40;;;1.63;;
29700;SDS011;57917;51.380;-0.176;2023-05-10T16:12:56;1.67;;;0.90;;
29700;SDS011;57917;51.380;-0.176;2023-05-10T16:18:43;4.95;;;1.00;;
29700;SDS011;57917;51.380;-0.176;2023-05-10T16:24:38;5.60;;;1.02;;
29700;SDS011;57917;51.380;-0.176;2023-05-10T16:30:32;5.60;;;1.05;;
29700;SDS011;57917;51.380;-0.176;2023-05-10T16:36:20;4.20;;;1.10;;
29700;SDS011;57917;51.380;-0.176;2023-05-10T16:42:19;6.68;;;1.00;;
29700;SDS011;57917;51.380;-0.176;2023-05-10T16:48:09;7.35;;;1.25;;
29700;SDS011;57917;51.380;-0.176;2023-05-10T16:54:02;3.67;;;1.27;;
29700;SDS011;57917;51.380;-0.176;2023-05-10T16:59:58;6.35;;;1.20;;
29700;SDS011;57917;51.380;-0.176;2023-05-10T17:05:45;5.50;;;1.10;;
29700;SDS011;57917;51.380;-0.176;2023-05-10T17:11:37;4.22;;;1.38;;
29700;SDS011;57917;51.380;-0.176;2023-05-10T17:17:41;7.85;;;1.20;;
29700;SDS011;57917;51.380;-0.176;2023-05-10T17:23:28;6.13;;;1.30;;
29700;SDS011;57917;51.380;-0.176;2023-05-10T17:29:43;4.18;;;1.10;;
29700;SDS011;57917;51.380;-0.176;2023-05-10T17:35:32;6.43;;;1.25;;
29700;SDS011;57917;51.380;-0.176;2023-05-10T17:41:21;1.42;;;0.82;;
29700;SDS011;57917;51.380;-0.176;2023-05-10T17:47:14;2.22;;;0.68;;
29700;SDS011;57917;51.380;-0.176;2023-05-10T17:53:25;2.15;;;0.70;;
29700;SDS011;57917;51.380;-0.176;2023-05-10T18:14:21;4.70;;;1.70;;
29700;SDS011;57917;51.380;-0.176;2023-05-10T18:20:47;7.57;;;1.33;;
29700;SDS011;57917;51.380;-0.176;2023-05-10T18:26:42;6.28;;;1.20;;
29700;SDS011;57917;51.380;-0.176;2023-05-10T18:32:40;2.90;;;1.45;;
29700;SDS011;57917;51.380;-0.176;2023-05-10T18:38:27;5.03;;;1.42;;
29700;SDS011;57917;51.380;-0.176;2023-05-10T18:44:19;40.20;;;2.80;;
29700;SDS011;57917;51.380;-0.176;2023-05-10T18:50:21;5.72;;;1.40;;
29700;SDS011;57917;51.380;-0.176;2023-05-10T18:56:39;5.60;;;1.30;;
29700;SDS011;57917;51.380;-0.176;2023-05-10T19:02:36;9.93;;;3.28;;
29700;SDS011;57917;51.380;-0.176;2023-05-10T19:08:49;4.07;;;1.33;;
29700;SDS011;57917;51.380;-0.176;2023-05-10T19:14:59;10.57;;;2.25;;
29700;SDS011;57917;51.380;-0.176;2023-05-10T19:21:07;6.57;;;1.83;;
29700;SDS011;57917;51.380;-0.176;2023-05-10T19:27:12;3.13;;;1.35;;
29700;SDS011;57917;51.380;-0.176;2023-05-10T19:33:03;6.00;;;2.20;;
29700;SDS011;57917;51.380;-0.176;2023-05-10T19:39:02;5.82;;;1.55;;
29700;SDS011;57917;51.380;-0.176;2023-05-10T19:45:06;13.18;;;2.40;;
29700;SDS011;57917;51.380;-0.176;2023-05-10T19:51:05;4.90;;;1.70;;
29700;SDS011;57917;51.380;-0.176;2023-05-10T19:57:08;5.10;;;1.80;;
29700;SDS011;57917;51.380;-0.176;2023-05-10T20:03:12;8.50;;;2.10;;
29700;SDS011;57917;51.380;-0.176;2023-05-10T20:09:20;4.20;;;1.25;;
29700;SDS011;57917;51.380;-0.176;2023-05-10T20:15:07;4.35;;;1.13;;
29700;SDS011;57917;51.380;-0.176;2023-05-10T20:21:06;2.83;;;1.17;;
29700;SDS011;57917;51.380;-0.176;2023-05-10T20:33:12;10.20;;;3.60;;
29700;SDS011;57917;51.380;-0.176;2023-05-10T20:39:51;5.38;;;1.73;;
29700;SDS011;57917;51.380;-0.176;2023-05-10T20:45:39;4.85;;;1.38;;
29700;SDS011;57917;51.380;-0.176;2023-05-10T20:51:30;3.65;;;1.42;;
29700;SDS011;57917;51.380;-0.176;2023-05-10T20:57:18;3.15;;;1.40;;
29700;SDS011;57917;51.380;-0.176;2023-05-10T21:03:30;3.42;;;1.60;;
29700;SDS011;57917;51.380;-0.176;2023-05-10T21:09:17;3.65;;;1.60;;
29700;SDS011;57917;51.380;-0.176;2023-05-10T21:15:05;5.47;;;1.77;;
29700;SDS011;57917;51.380;-0.176;2023-05-10T21:20:58;3.97;;;1.40;;
29700;SDS011;57917;51.380;-0.176;2023-05-10T21:27:12;3.63;;;1.23;;
29700;SDS011;57917;51.380;-0.176;2023-05-10T21:33:19;14.50;;;2.55;;
29700;SDS011;57917;51.380;-0.176;2023-05-10T21:39:16;2.42;;;0.82;;
29700;SDS011;57917;51.380;-0.176;2023-05-10T21:45:11;1.60;;;0.82;;
29700;SDS011;57917;51.380;-0.176;2023-05-10T21:51:04;4.65;;;1.10;;
29700;SDS011;57917;51.380;-0.176;2023-05-10T21:56:55;4.53;;;1.15;;
29700;SDS011;57917;51.380;-0.176;2023-05-10T22:02:42;2.55;;;0.95;;
29700;SDS011;57917;51.380;-0.176;2023-05-10T22:09:35;5.65;;;1.15;;
29700;SDS011;57917;51.380;-0.176;2023-05-10T22:15:25;1.73;;;1.17;;
29700;SDS011;57917;51.380;-0.176;2023-05-10T22:21:20;2.05;;;0.88;;
29700;SDS011;57917;51.380;-0.176;2023-05-10T22:27:07;4.22;;;1.27;;
29700;SDS011;57917;51.380;-0.176;2023-05-10T22:32:58;3.85;;;1.10;;
29700;SDS011;57917;51.380;-0.176;2023-05-10T22:38:46;2.80;;;1.25;;
29700;SDS011;57917;51.380;-0.176;2023-05-10T22:44:35;1.73;;;1.02;;
29700;SDS011;57917;51.380;-0.176;2023-05-10T22:50:27;2.30;;;1.30;;
29700;SDS011;57917;51.380;-0.176;2023-05-10T22:56:17;2.85;;;1.02;;
29700;SDS011;57917;51.380;-0.176;2023-05-10T23:02:25;6.13;;;1.08;;
29700;SDS011;57917;51.380;-0.176;2023-05-10T23:08:15;10.38;;;1.27;;
29700;SDS011;57917;51.380;-0.176;2023-05-10T23:14:02;2.45;;;0.88;;
29700;SDS011;57917;51.380;-0.176;2023-05-10T23:20:05;5.28;;;0.93;;
29700;SDS011;57917;51.380;-0.176;2023-05-10T23:26:02;3.45;;;1.20;;
29700;SDS011;57917;51.380;-0.176;2023-05-10T23:31:50;2.15;;;1.00;;
29700;SDS011;57917;51.380;-0.176;2023-05-10T23:37:47;1.67;;;1.00;;
29700;SDS011;57917;51.380;-0.176;2023-05-10T23:43:38;1.95;;;0.70;;
29700;SDS011;57917;51.380;-0.176;2023-05-10T23:49:27;2.90;;;0.90;;
29700;SDS011;57917;51.380;-0.176;2023-05-10T23:55:15;4.38;;;0.70;;
